sensor_id;sensor_type;location;lat;lon;timestamp;pressure;altitude;pressure_sealevel;temperature;humidity
5913;BME280;2982;42.684;23.356;2023-02-26T00:02:25;93773.25;;;14.30;71.56
5913;BME280;2982;42.684;23.356;2023-02-26T00:04:50;93765.94;;;14.16;70.56
5913;BME280;2982;42.684;23.356;2023-02-26T00:07:16;93770.25;;;14.25;70.20
5913;BME280;2982;42.684;23.356;2023-02-26T00:09:41;93765.84;;;14.27;70.03
5913;BME280;2982;42.684;23.356;2023-02-26T00:12:10;93751.16;;;14.19;69.75
5913;BME280;2982;42.684;23.356;2023-02-26T00:14:35;93756.03;;;14.22;70.33
5913;BME280;2982;42.684;23.356;2023-02-26T00:17:41;93758.16;;;14.17;70.03
5913;BME280;2982;42.684;23.356;2023-02-26T00:20:09;93738.13;;;14.13;68.53
5913;BME280;2982;42.684;23.356;2023-02-26T00:22:34;93747.13;;;14.17;67.98
5913;BME280;2982;42.684;23.356;2023-02-26T00:25:00;93729.91;;;14.19;66.37
5913;BME280;2982;42.684;23.356;2023-02-26T00:27:25;93761.81;;;14.34;65.66
5913;BME280;2982;42.684;23.356;2023-02-26T00:29:51;93742.84;;;14.17;66.69
5913;BME280;2982;42.684;23.356;2023-02-26T00:32:16;93747.81;;;14.28;67.59
5913;BME280;2982;42.684;23.356;2023-02-26T00:34:43;93752.50;;;14.23;69.10
5913;BME280;2982;42.684;23.356;2023-02-26T00:37:25;93739.06;;;14.11;68.96
5913;BME280;2982;42.684;23.356;2023-02-26T00:42:30;93739.09;;;14.21;67.96
5913;BME280;2982;42.684;23.356;2023-02-26T00:44:56;93736.91;;;14.17;68.80
5913;BME280;2982;42.684;23.356;2023-02-26T00:47:33;93735.03;;;14.09;69.69
5913;BME280;2982;42.684;23.356;2023-02-26T00:50:15;93735.16;;;14.07;69.03
5913;BME280;2982;42.684;23.356;2023-02-26T00:55:18;93693.34;;;13.99;68.79
5913;BME280;2982;42.684;23.356;2023-02-26T00:57:44;93715.38;;;14.00;69.78
5913;BME280;2982;42.684;23.356;2023-02-26T01:00:10;93719.41;;;14.02;67.33
5913;BME280;2982;42.684;23.356;2023-02-26T01:02:37;93734.72;;;14.02;69.01
5913;BME280;2982;42.684;23.356;2023-02-26T01:05:03;93713.34;;;13.94;69.05
5913;BME280;2982;42.684;23.356;2023-02-26T01:07:33;93708.38;;;13.92;69.75
5913;BME280;2982;42.684;23.356;2023-02-26T01:10:03;93693.03;;;13.83;69.17
5913;BME280;2982;42.684;23.356;2023-02-26T01:12:28;93705.41;;;13.87;69.96
5913;BME280;2982;42.684;23.356;2023-02-26T01:14:54;93716.41;;;13.88;70.34
5913;BME280;2982;42.684;23.356;2023-02-26T01:17:20;93700.03;;;13.81;70.20
5913;BME280;2982;42.684;23.356;2023-02-26T01:20:01;93693.50;;;13.67;71.25
5913;BME280;2982;42.684;23.356;2023-02-26T01:25:19;93684.50;;;13.63;71.27
5913;BME280;2982;42.684;23.356;2023-02-26T01:27:45;93674.81;;;13.57;72.53
5913;BME280;2982;42.684;23.356;2023-02-26T01:30:11;93660.97;;;13.50;71.12
5913;BME280;2982;42.684;23.356;2023-02-26T01:35:16;93649.31;;;13.57;68.84
5913;BME280;2982;42.684;23.356;2023-02-26T01:43:08;93624.47;;;13.59;66.77
5913;BME280;2982;42.684;23.356;2023-02-26T01:45:44;93648.16;;;13.71;65.36
5913;BME280;2982;42.684;23.356;2023-02-26T01:48:36;93640.75;;;13.77;65.88
5913;BME280;2982;42.684;23.356;2023-02-26T01:51:03;93637.78;;;13.72;66.55
5913;BME280;2982;42.684;23.356;2023-02-26T01:53:29;93625.41;;;13.58;65.99
5913;BME280;2982;42.684;23.356;2023-02-26T01:56:00;93640.06;;;13.65;66.27
5913;BME280;2982;42.684;23.356;2023-02-26T01:58:29;93666.94;;;13.70;66.53
5913;BME280;2982;42.684;23.356;2023-02-26T02:00:55;93642.47;;;13.67;63.65
5913;BME280;2982;42.684;23.356;2023-02-26T02:03:23;93630.69;;;13.76;61.35
5913;BME280;2982;42.684;23.356;2023-02-26T02:05:54;93618.19;;;13.82;59.37
5913;BME280;2982;42.684;23.356;2023-02-26T02:08:21;93607.34;;;13.90;57.80
5913;BME280;2982;42.684;23.356;2023-02-26T02:10:47;93654.50;;;13.95;58.26
5913;BME280;2982;42.684;23.356;2023-02-26T02:31:54;93648.50;;;14.25;57.64
5913;BME280;2982;42.684;23.356;2023-02-26T02:37:28;93619.56;;;14.05;57.22
5913;BME280;2982;42.684;23.356;2023-02-26T02:40:02;93614.75;;;14.12;57.55
5913;BME280;2982;42.684;23.356;2023-02-26T02:42:45;93643.75;;;14.01;57.57
5913;BME280;2982;42.684;23.356;2023-02-26T02:45:17;93623.31;;;13.92;57.27
5913;BME280;2982;42.684;23.356;2023-02-26T02:47:48;93638.25;;;13.96;57.33
5913;BME280;2982;42.684;23.356;2023-02-26T02:53:00;93660.56;;;13.94;57.39
5913;BME280;2982;42.684;23.356;2023-02-26T02:55:30;93665.66;;;13.94;56.22
5913;BME280;2982;42.684;23.356;2023-02-26T02:58:02;93651.28;;;13.93;56.53
5913;BME280;2982;42.684;23.356;2023-02-26T03:00:30;93637.44;;;13.96;56.28
5913;BME280;2982;42.684;23.356;2023-02-26T03:03:49;93647.94;;;14.02;56.14
5913;BME280;2982;42.684;23.356;2023-02-26T03:05:46;93654.75;;;13.92;56.35
5913;BME280;2982;42.684;23.356;2023-02-26T03:08:15;93647.78;;;13.94;55.42
5913;BME280;2982;42.684;23.356;2023-02-26T03:10:41;93658.53;;;13.98;56.29
5913;BME280;2982;42.684;23.356;2023-02-26T03:13:14;93649.63;;;13.83;56.57
5913;BME280;2982;42.684;23.356;2023-02-26T03:21:10;93652.59;;;13.88;55.75
5913;BME280;2982;42.684;23.356;2023-02-26T03:23:56;93622.63;;;13.71;55.08
5913;BME280;2982;42.684;23.356;2023-02-26T03:26:30;93632.72;;;13.91;53.80
5913;BME280;2982;42.684;23.356;2023-02-26T03:29:04;93643.34;;;13.96;54.16
5913;BME280;2982;42.684;23.356;2023-02-26T03:34:07;93642.94;;;14.01;54.75
5913;BME280;2982;42.684;23.356;2023-02-26T03:36:39;93641.59;;;13.97;54.34
5913;BME280;2982;42.684;23.356;2023-02-26T03:39:11;93650.91;;;14.07;53.85
5913;BME280;2982;42.684;23.356;2023-02-26T03:41:44;93656.81;;;14.18;52.68
5913;BME280;2982;42.684;23.356;2023-02-26T03:44:44;93648.88;;;14.21;52.97
5913;BME280;2982;42.684;23.356;2023-02-26T03:47:13;93640.41;;;14.10;52.48
5913;BME280;2982;42.684;23.356;2023-02-26T03:50:13;93645.28;;;14.14;52.32
5913;BME280;2982;42.684;23.356;2023-02-26T03:52:42;93625.09;;;14.10;52.75
5913;BME280;2982;42.684;23.356;2023-02-26T03:55:29;93646.22;;;14.13;52.55
5913;BME280;2982;42.684;23.356;2023-02-26T03:57:55;93638.94;;;14.18;52.08
5913;BME280;2982;42.684;23.356;2023-02-26T04:00:22;93622.13;;;14.15;52.46
5913;BME280;2982;42.684;23.356;2023-02-26T04:05:23;93625.63;;;14.14;52.75
5913;BME280;2982;42.684;23.356;2023-02-26T04:07:50;93619.06;;;14.11;51.92
5913;BME280;2982;42.684;23.356;2023-02-26T04:10:20;93631.69;;;14.13;53.45
5913;BME280;2982;42.684;23.356;2023-02-26T04:12:48;93619.16;;;14.10;52.90
5913;BME280;2982;42.684;23.356;2023-02-26T04:15:13;93616.22;;;14.15;52.57
5913;BME280;2982;42.684;23.356;2023-02-26T04:17:39;93628.97;;;14.05;52.52
5913;BME280;2982;42.684;23.356;2023-02-26T04:20:05;93609.53;;;14.04;52.90
5913;BME280;2982;42.684;23.356;2023-02-26T04:22:30;93603.72;;;14.02;52.29
5913;BME280;2982;42.684;23.356;2023-02-26T04:24:56;93602.91;;;14.11;52.87
5913;BME280;2982;42.684;23.356;2023-02-26T04:27:21;93622.53;;;14.10;52.49
5913;BME280;2982;42.684;23.356;2023-02-26T04:29:46;93590.69;;;14.05;52.29
5913;BME280;2982;42.684;23.356;2023-02-26T04:32:11;93599.72;;;14.09;51.86
5913;BME280;2982;42.684;23.356;2023-02-26T04:34:37;93604.53;;;14.12;52.42
5913;BME280;2982;42.684;23.356;2023-02-26T04:37:02;93589.50;;;14.09;51.19
5913;BME280;2982;42.684;23.356;2023-02-26T04:39:27;93582.91;;;14.16;51.65
5913;BME280;2982;42.684;23.356;2023-02-26T04:41:53;93572.97;;;14.13;51.30
5913;BME280;2982;42.684;23.356;2023-02-26T04:44:18;93572.69;;;14.16;50.86
5913;BME280;2982;42.684;23.356;2023-02-26T04:46:43;93579.00;;;14.12;50.95
5913;BME280;2982;42.684;23.356;2023-02-26T04:49:09;93584.50;;;14.07;51.37
5913;BME280;2982;42.684;23.356;2023-02-26T04:51:34;93591.91;;;14.10;51.27
5913;BME280;2982;42.684;23.356;2023-02-26T04:53:59;93552.78;;;13.91;51.63
5913;BME280;2982;42.684;23.356;2023-02-26T04:56:25;93558.88;;;13.99;51.67
5913;BME280;2982;42.684;23.356;2023-02-26T04:58:50;93581.69;;;14.01;51.92
5913;BME280;2982;42.684;23.356;2023-02-26T05:01:15;93583.97;;;13.94;52.76
5913;BME280;2982;42.684;23.356;2023-02-26T05:03:40;93579.38;;;13.79;53.23
5913;BME280;2982;42.684;23.356;2023-02-26T05:06:06;93569.03;;;13.61;53.92
5913;BME280;2982;42.684;23.356;2023-02-26T05:08:31;93584.75;;;13.66;54.43
5913;BME280;2982;42.684;23.356;2023-02-26T05:10:57;93578.53;;;13.59;54.39
5913;BME280;2982;42.684;23.356;2023-02-26T05:13:23;93546.44;;;13.47;53.83
5913;BME280;2982;42.684;23.356;2023-02-26T05:15:48;93554.16;;;13.76;54.09
5913;BME280;2982;42.684;23.356;2023-02-26T05:18:13;93580.06;;;13.81;54.70
5913;BME280;2982;42.684;23.356;2023-02-26T05:20:39;93570.00;;;13.79;54.27
5913;BME280;2982;42.684;23.356;2023-02-26T05:23:04;93573.47;;;13.78;54.48
5913;BME280;2982;42.684;23.356;2023-02-26T05:25:29;93569.31;;;13.77;53.27
5913;BME280;2982;42.684;23.356;2023-02-26T05:27:55;93559.91;;;13.78;52.61
5913;BME280;2982;42.684;23.356;2023-02-26T05:30:20;93565.03;;;13.87;53.21
5913;BME280;2982;42.684;23.356;2023-02-26T05:32:46;93548.66;;;13.80;53.64
5913;BME280;2982;42.684;23.356;2023-02-26T05:35:11;93579.81;;;13.84;53.77
5913;BME280;2982;42.684;23.356;2023-02-26T05:37:37;93592.16;;;13.88;54.35
5913;BME280;2982;42.684;23.356;2023-02-26T05:40:03;93558.84;;;13.71;54.95
5913;BME280;2982;42.684;23.356;2023-02-26T05:42:29;93550.50;;;13.68;54.26
5913;BME280;2982;42.684;23.356;2023-02-26T05:44:54;93565.41;;;13.83;54.88
5913;BME280;2982;42.684;23.356;2023-02-26T05:47:20;93570.13;;;13.87;54.08
5913;BME280;2982;42.684;23.356;2023-02-26T05:49:45;93581.41;;;13.85;55.06
5913;BME280;2982;42.684;23.356;2023-02-26T05:52:10;93571.03;;;13.77;55.17
5913;BME280;2982;42.684;23.356;2023-02-26T05:54:36;93586.94;;;13.90;52.95
5913;BME280;2982;42.684;23.356;2023-02-26T05:57:01;93585.16;;;14.00;51.98
5913;BME280;2982;42.684;23.356;2023-02-26T05:59:26;93567.72;;;14.05;51.19
5913;BME280;2982;42.684;23.356;2023-02-26T06:01:52;93582.63;;;14.09;50.25
5913;BME280;2982;42.684;23.356;2023-02-26T06:04:17;93571.75;;;14.17;49.97
5913;BME280;2982;42.684;23.356;2023-02-26T06:06:42;93574.03;;;14.39;48.30
5913;BME280;2982;42.684;23.356;2023-02-26T06:09:08;93599.03;;;14.55;47.59
5913;BME280;2982;42.684;23.356;2023-02-26T06:11:33;93584.22;;;14.68;48.26
5913;BME280;2982;42.684;23.356;2023-02-26T06:13:58;93598.75;;;14.68;47.87
5913;BME280;2982;42.684;23.356;2023-02-26T06:16:24;93574.09;;;14.76;47.10
5913;BME280;2982;42.684;23.356;2023-02-26T06:18:49;93596.25;;;14.95;46.79
5913;BME280;2982;42.684;23.356;2023-02-26T06:21:15;93599.63;;;14.95;46.32
5913;BME280;2982;42.684;23.356;2023-02-26T06:23:41;93619.94;;;14.97;46.97
5913;BME280;2982;42.684;23.356;2023-02-26T06:26:06;93617.94;;;14.91;47.44
5913;BME280;2982;42.684;23.356;2023-02-26T06:28:31;93608.06;;;15.06;46.74
5913;BME280;2982;42.684;23.356;2023-02-26T06:30:57;93611.56;;;15.05;46.63
5913;BME280;2982;42.684;23.356;2023-02-26T06:33:22;93606.69;;;15.21;45.99
5913;BME280;2982;42.684;23.356;2023-02-26T06:35:48;93595.06;;;15.26;45.60
5913;BME280;2982;42.684;23.356;2023-02-26T06:38:14;93610.66;;;15.33;45.04
5913;BME280;2982;42.684;23.356;2023-02-26T06:40:39;93578.72;;;15.10;45.07
5913;BME280;2982;42.684;23.356;2023-02-26T06:43:05;93602.50;;;15.47;43.85
5913;BME280;2982;42.684;23.356;2023-02-26T06:45:30;93583.59;;;15.67;43.93
5913;BME280;2982;42.684;23.356;2023-02-26T06:47:55;93599.97;;;15.74;43.61
5913;BME280;2982;42.684;23.356;2023-02-26T06:50:21;93584.84;;;15.81;43.47
5913;BME280;2982;42.684;23.356;2023-02-26T06:52:46;93602.84;;;15.89;43.51
5913;BME280;2982;42.684;23.356;2023-02-26T06:55:12;93592.59;;;15.89;43.16
5913;BME280;2982;42.684;23.356;2023-02-26T06:57:37;93589.16;;;15.98;42.95
5913;BME280;2982;42.684;23.356;2023-02-26T07:00:04;93589.31;;;16.14;41.25
5913;BME280;2982;42.684;23.356;2023-02-26T07:02:30;93572.78;;;16.09;41.86
5913;BME280;2982;42.684;23.356;2023-02-26T07:04:55;93598.84;;;16.22;41.22
5913;BME280;2982;42.684;23.356;2023-02-26T07:07:21;93593.19;;;16.36;41.08
5913;BME280;2982;42.684;23.356;2023-02-26T07:09:46;93563.09;;;16.38;41.48
5913;BME280;2982;42.684;23.356;2023-02-26T07:12:11;93572.63;;;16.28;40.66
5913;BME280;2982;42.684;23.356;2023-02-26T07:14:37;93576.88;;;16.37;40.11
5913;BME280;2982;42.684;23.356;2023-02-26T07:17:02;93581.75;;;16.48;40.79
5913;BME280;2982;42.684;23.356;2023-02-26T07:19:28;93569.09;;;16.64;40.55
5913;BME280;2982;42.684;23.356;2023-02-26T07:21:53;93583.72;;;16.72;39.68
5913;BME280;2982;42.684;23.356;2023-02-26T07:24:19;93571.97;;;16.87;39.33
5913;BME280;2982;42.684;23.356;2023-02-26T07:26:44;93588.88;;;16.98;39.37
5913;BME280;2982;42.684;23.356;2023-02-26T07:29:09;93568.34;;;16.98;39.19
5913;BME280;2982;42.684;23.356;2023-02-26T07:31:35;93570.44;;;17.02;38.68
5913;BME280;2982;42.684;23.356;2023-02-26T07:34:00;93579.34;;;17.16;39.11
5913;BME280;2982;42.684;23.356;2023-02-26T07:36:25;93597.19;;;17.26;38.83
5913;BME280;2982;42.684;23.356;2023-02-26T07:38:51;93589.44;;;17.17;37.93
5913;BME280;2982;42.684;23.356;2023-02-26T07:41:16;93571.63;;;17.16;38.57
5913;BME280;2982;42.684;23.356;2023-02-26T07:43:41;93572.47;;;17.25;38.33
5913;BME280;2982;42.684;23.356;2023-02-26T07:46:07;93584.03;;;17.29;38.65
5913;BME280;2982;42.684;23.356;2023-02-26T07:48:33;93588.75;;;17.41;38.18
5913;BME280;2982;42.684;23.356;2023-02-26T07:50:58;93587.78;;;17.42;37.94
5913;BME280;2982;42.684;23.356;2023-02-26T07:53:24;93549.72;;;17.30;38.10
5913;BME280;2982;42.684;23.356;2023-02-26T07:55:49;93581.03;;;17.41;37.99
5913;BME280;2982;42.684;23.356;2023-02-26T07:58:14;93578.53;;;17.49;38.21
5913;BME280;2982;42.684;23.356;2023-02-26T08:00:40;93572.41;;;17.50;37.71
5913;BME280;2982;42.684;23.356;2023-02-26T08:03:05;93579.78;;;17.45;37.99
5913;BME280;2982;42.684;23.356;2023-02-26T08:05:30;93591.84;;;17.53;37.09
5913;BME280;2982;42.684;23.356;2023-02-26T08:07:55;93581.38;;;17.46;36.80
5913;BME280;2982;42.684;23.356;2023-02-26T08:10:21;93574.22;;;17.58;36.71
5913;BME280;2982;42.684;23.356;2023-02-26T08:12:46;93582.44;;;17.70;36.56
5913;BME280;2982;42.684;23.356;2023-02-26T08:15:11;93565.81;;;17.82;36.17
5913;BME280;2982;42.684;23.356;2023-02-26T08:17:37;93575.28;;;17.81;36.19
5913;BME280;2982;42.684;23.356;2023-02-26T08:20:02;93585.56;;;17.97;36.18
5913;BME280;2982;42.684;23.356;2023-02-26T08:22:28;93588.00;;;17.99;35.96
5913;BME280;2982;42.684;23.356;2023-02-26T08:24:53;93579.25;;;17.68;36.47
5913;BME280;2982;42.684;23.356;2023-02-26T08:27:18;93567.78;;;17.54;36.43
5913;BME280;2982;42.684;23.356;2023-02-26T08:29:43;93598.88;;;17.85;36.11
5913;BME280;2982;42.684;23.356;2023-02-26T08:32:09;93603.75;;;18.12;36.06
5913;BME280;2982;42.684;23.356;2023-02-26T08:34:34;93583.53;;;18.17;35.43
5913;BME280;2982;42.684;23.356;2023-02-26T08:36:59;93604.91;;;18.26;35.66
5913;BME280;2982;42.684;23.356;2023-02-26T08:39:25;93610.19;;;18.16;34.86
5913;BME280;2982;42.684;23.356;2023-02-26T08:41:50;93623.50;;;18.20;35.47
5913;BME280;2982;42.684;23.356;2023-02-26T08:44:15;93615.97;;;18.26;35.58
5913;BME280;2982;42.684;23.356;2023-02-26T08:46:40;93615.97;;;18.18;35.32
5913;BME280;2982;42.684;23.356;2023-02-26T08:49:06;93630.66;;;18.58;35.44
5913;BME280;2982;42.684;23.356;2023-02-26T08:51:31;93627.13;;;18.75;34.95
5913;BME280;2982;42.684;23.356;2023-02-26T08:53:56;93646.88;;;18.91;34.42
5913;BME280;2982;42.684;23.356;2023-02-26T08:56:22;93619.88;;;18.87;33.84
5913;BME280;2982;42.684;23.356;2023-02-26T08:58:47;93624.09;;;18.80;34.26
5913;BME280;2982;42.684;23.356;2023-02-26T09:01:12;93617.97;;;18.73;34.39
5913;BME280;2982;42.684;23.356;2023-02-26T09:03:37;93614.56;;;18.80;34.04
5913;BME280;2982;42.684;23.356;2023-02-26T09:06:03;93625.50;;;19.07;33.85
5913;BME280;2982;42.684;23.356;2023-02-26T09:08:28;93617.00;;;18.98;33.50
5913;BME280;2982;42.684;23.356;2023-02-26T09:10:53;93629.19;;;19.12;33.79
5913;BME280;2982;42.684;23.356;2023-02-26T09:13:19;93611.94;;;19.29;33.16
5913;BME280;2982;42.684;23.356;2023-02-26T09:15:44;93635.91;;;19.29;33.35
5913;BME280;2982;42.684;23.356;2023-02-26T09:18:10;93608.25;;;19.15;33.21
5913;BME280;2982;42.684;23.356;2023-02-26T09:20:35;93598.28;;;19.20;33.09
5913;BME280;2982;42.684;23.356;2023-02-26T09:23:00;93611.75;;;19.39;33.20
5913;BME280;2982;42.684;23.356;2023-02-26T09:25:26;93608.59;;;19.12;32.95
5913;BME280;2982;42.684;23.356;2023-02-26T09:27:51;93599.22;;;19.35;32.59
5913;BME280;2982;42.684;23.356;2023-02-26T09:30:16;93597.16;;;19.70;32.40
5913;BME280;2982;42.684;23.356;2023-02-26T09:32:42;93593.03;;;19.92;32.54
5913;BME280;2982;42.684;23.356;2023-02-26T09:35:07;93613.41;;;20.09;32.67
5913;BME280;2982;42.684;23.356;2023-02-26T09:37:32;93584.88;;;19.80;31.67
5913;BME280;2982;42.684;23.356;2023-02-26T09:39:58;93566.19;;;19.86;31.84
5913;BME280;2982;42.684;23.356;2023-02-26T09:45:25;93593.13;;;20.37;32.02
5913;BME280;2982;42.684;23.356;2023-02-26T09:47:53;93625.25;;;20.72;31.66
5913;BME280;2982;42.684;23.356;2023-02-26T09:51:00;93606.00;;;20.60;30.34
5913;BME280;2982;42.684;23.356;2023-02-26T09:53:34;93607.13;;;20.35;30.68
5913;BME280;2982;42.684;23.356;2023-02-26T09:56:09;93615.91;;;20.48;30.69
5913;BME280;2982;42.684;23.356;2023-02-26T09:58:39;93612.16;;;20.28;30.67
5913;BME280;2982;42.684;23.356;2023-02-26T10:01:13;93579.97;;;20.24;30.96
5913;BME280;2982;42.684;23.356;2023-02-26T10:06:31;93591.41;;;20.52;30.81
5913;BME280;2982;42.684;23.356;2023-02-26T10:12:19;93601.16;;;20.80;31.09
5913;BME280;2982;42.684;23.356;2023-02-26T10:17:24;93601.81;;;20.59;31.12
5913;BME280;2982;42.684;23.356;2023-02-26T10:19:55;93610.53;;;20.81;30.99
5913;BME280;2982;42.684;23.356;2023-02-26T10:22:29;93602.31;;;20.77;31.06
5913;BME280;2982;42.684;23.356;2023-02-26T10:25:23;93594.03;;;20.82;30.61
5913;BME280;2982;42.684;23.356;2023-02-26T10:30:48;93598.09;;;20.39;30.61
5913;BME280;2982;42.684;23.356;2023-02-26T10:35:51;93600.25;;;20.27;31.65
5913;BME280;2982;42.684;23.356;2023-02-26T10:38:19;93592.75;;;20.40;31.27
5913;BME280;2982;42.684;23.356;2023-02-26T10:41:12;93575.34;;;20.42;31.01
5913;BME280;2982;42.684;23.356;2023-02-26T10:43:41;93568.50;;;20.27;31.14
5913;BME280;2982;42.684;23.356;2023-02-26T10:51:35;93558.97;;;20.73;31.20
5913;BME280;2982;42.684;23.356;2023-02-26T10:54:32;93483.84;;;20.38;31.06
5913;BME280;2982;42.684;23.356;2023-02-26T10:56:59;93554.47;;;20.52;31.28
5913;BME280;2982;42.684;23.356;2023-02-26T10:59:25;93560.03;;;20.41;31.20
5913;BME280;2982;42.684;23.356;2023-02-26T11:01:51;93532.75;;;20.23;31.51
5913;BME280;2982;42.684;23.356;2023-02-26T11:04:20;93564.78;;;20.29;31.68
5913;BME280;2982;42.684;23.356;2023-02-26T11:06:59;93543.13;;;20.15;31.34
5913;BME280;2982;42.684;23.356;2023-02-26T11:09:34;93536.59;;;20.05;31.05
5913;BME280;2982;42.684;23.356;2023-02-26T11:14:36;93546.03;;;19.90;32.50
5913;BME280;2982;42.684;23.356;2023-02-26T11:17:06;93530.41;;;19.91;32.40
5913;BME280;2982;42.684;23.356;2023-02-26T11:19:37;93523.59;;;19.67;32.59
5913;BME280;2982;42.684;23.356;2023-02-26T11:22:04;93519.88;;;19.70;32.65
5913;BME280;2982;42.684;23.356;2023-02-26T11:24:36;93535.31;;;19.39;33.00
5913;BME280;2982;42.684;23.356;2023-02-26T11:27:04;93560.91;;;19.41;32.92
5913;BME280;2982;42.684;23.356;2023-02-26T11:29:37;93554.53;;;19.20;33.69
5913;BME280;2982;42.684;23.356;2023-02-26T11:32:04;93558.63;;;18.99;34.40
5913;BME280;2982;42.684;23.356;2023-02-26T11:34:30;93573.41;;;18.88;34.70
5913;BME280;2982;42.684;23.356;2023-02-26T11:36:57;93568.75;;;18.76;34.75
5913;BME280;2982;42.684;23.356;2023-02-26T11:39:26;93556.06;;;18.50;34.87
5913;BME280;2982;42.684;23.356;2023-02-26T11:41:56;93582.44;;;18.76;34.04
5913;BME280;2982;42.684;23.356;2023-02-26T11:44:40;93573.91;;;18.84;34.57
5913;BME280;2982;42.684;23.356;2023-02-26T11:47:11;93572.63;;;18.80;34.51
5913;BME280;2982;42.684;23.356;2023-02-26T11:49:42;93553.50;;;18.74;35.14
5913;BME280;2982;42.684;23.356;2023-02-26T11:52:32;93588.53;;;18.51;35.47
5913;BME280;2982;42.684;23.356;2023-02-26T11:55:32;93591.09;;;18.35;34.57
5913;BME280;2982;42.684;23.356;2023-02-26T11:57:58;93587.72;;;18.34;34.53
5913;BME280;2982;42.684;23.356;2023-02-26T12:02:48;93592.38;;;18.47;35.30
5913;BME280;2982;42.684;23.356;2023-02-26T12:05:16;93597.53;;;18.63;34.22
5913;BME280;2982;42.684;23.356;2023-02-26T12:07:41;93616.34;;;18.88;34.36
5913;BME280;2982;42.684;23.356;2023-02-26T12:10:16;93615.34;;;19.05;34.23
5913;BME280;2982;42.684;23.356;2023-02-26T12:13:07;93618.53;;;19.23;34.08
5913;BME280;2982;42.684;23.356;2023-02-26T12:16:54;93613.34;;;19.48;34.54
5913;BME280;2982;42.684;23.356;2023-02-26T12:18:59;93623.31;;;19.59;34.59
5913;BME280;2982;42.684;23.356;2023-02-26T12:35:44;93633.97;;;18.26;38.83
5913;BME280;2982;42.684;23.356;2023-02-26T12:38:28;93634.97;;;18.33;39.55
5913;BME280;2982;42.684;23.356;2023-02-26T12:41:07;93599.22;;;18.06;40.38
5913;BME280;2982;42.684;23.356;2023-02-26T12:55:33;93643.03;;;18.55;41.96
5913;BME280;2982;42.684;23.356;2023-02-26T13:12:11;93636.13;;;18.63;38.56
5913;BME280;2982;42.684;23.356;2023-02-26T13:14:47;93631.44;;;18.51;39.22
5913;BME280;2982;42.684;23.356;2023-02-26T13:17:44;93622.91;;;18.42;39.66
5913;BME280;2982;42.684;23.356;2023-02-26T13:20:26;93635.72;;;18.26;39.83
5913;BME280;2982;42.684;23.356;2023-02-26T13:25:45;93652.16;;;18.41;38.79
5913;BME280;2982;42.684;23.356;2023-02-26T13:30:58;93633.25;;;18.74;38.55
5913;BME280;2982;42.684;23.356;2023-02-26T13:33:30;93644.63;;;19.12;39.33
5913;BME280;2982;42.684;23.356;2023-02-26T13:35:59;93643.75;;;19.52;38.57
5913;BME280;2982;42.684;23.356;2023-02-26T13:38:41;93627.66;;;19.58;37.77
5913;BME280;2982;42.684;23.356;2023-02-26T13:46:37;93631.72;;;19.84;38.71
5913;BME280;2982;42.684;23.356;2023-02-26T13:51:48;93620.13;;;19.32;39.12
5913;BME280;2982;42.684;23.356;2023-02-26T13:56:48;93631.56;;;19.14;39.91
5913;BME280;2982;42.684;23.356;2023-02-26T13:59:34;93608.47;;;18.89;40.57
5913;BME280;2982;42.684;23.356;2023-02-26T14:02:29;93630.31;;;18.85;39.71
5913;BME280;2982;42.684;23.356;2023-02-26T14:04:51;93623.59;;;18.68;39.99
5913;BME280;2982;42.684;23.356;2023-02-26T14:07:53;93623.13;;;18.65;39.57
5913;BME280;2982;42.684;23.356;2023-02-26T14:10:25;93622.97;;;18.66;39.64
5913;BME280;2982;42.684;23.356;2023-02-26T14:13:16;93634.53;;;18.70;40.04
5913;BME280;2982;42.684;23.356;2023-02-26T14:16:09;93632.44;;;18.74;40.66
5913;BME280;2982;42.684;23.356;2023-02-26T14:23:51;93636.59;;;18.91;37.79
5913;BME280;2982;42.684;23.356;2023-02-26T14:26:20;93609.63;;;18.71;38.35
5913;BME280;2982;42.684;23.356;2023-02-26T14:31:21;93644.91;;;18.44;38.32
5913;BME280;2982;42.684;23.356;2023-02-26T14:36:50;93648.78;;;18.32;38.92
5913;BME280;2982;42.684;23.356;2023-02-26T14:41:48;93656.91;;;18.20;38.95
5913;BME280;2982;42.684;23.356;2023-02-26T14:44:20;93646.00;;;18.10;39.19
5913;BME280;2982;42.684;23.356;2023-02-26T14:46:47;93630.38;;;17.87;38.98
5913;BME280;2982;42.684;23.356;2023-02-26T14:49:25;93642.06;;;17.89;39.18
5913;BME280;2982;42.684;23.356;2023-02-26T14:55:17;93656.53;;;17.90;40.03
5913;BME280;2982;42.684;23.356;2023-02-26T14:57:42;93674.34;;;17.92;39.74
5913;BME280;2982;42.684;23.356;2023-02-26T15:00:20;93674.81;;;17.87;39.28
5913;BME280;2982;42.684;23.356;2023-02-26T15:08:34;93668.34;;;17.75;39.32
5913;BME280;2982;42.684;23.356;2023-02-26T15:14:25;93664.63;;;17.70;39.87
5913;BME280;2982;42.684;23.356;2023-02-26T15:16:55;93662.97;;;17.60;40.11
5913;BME280;2982;42.684;23.356;2023-02-26T15:24:31;93675.25;;;17.49;41.28
5913;BME280;2982;42.684;23.356;2023-02-26T15:27:00;93665.69;;;17.33;40.79
5913;BME280;2982;42.684;23.356;2023-02-26T15:29:30;93677.22;;;17.29;41.10
5913;BME280;2982;42.684;23.356;2023-02-26T15:32:04;93685.06;;;17.28;42.08
5913;BME280;2982;42.684;23.356;2023-02-26T15:34:29;93689.34;;;17.19;42.51
5913;BME280;2982;42.684;23.356;2023-02-26T15:36:56;93677.81;;;16.97;43.35
5913;BME280;2982;42.684;23.356;2023-02-26T15:39:22;93681.47;;;16.95;44.77
5913;BME280;2982;42.684;23.356;2023-02-26T15:41:50;93711.38;;;16.86;45.79
5913;BME280;2982;42.684;23.356;2023-02-26T15:44:29;93713.09;;;16.78;46.25
5913;BME280;2982;42.684;23.356;2023-02-26T15:46:58;93704.66;;;16.67;46.12
5913;BME280;2982;42.684;23.356;2023-02-26T15:49:38;93685.41;;;16.63;46.48
5913;BME280;2982;42.684;23.356;2023-02-26T15:52:06;93707.66;;;16.63;45.91
5913;BME280;2982;42.684;23.356;2023-02-26T15:54:42;93674.06;;;16.56;44.93
5913;BME280;2982;42.684;23.356;2023-02-26T15:57:11;93699.72;;;16.56;45.00
5913;BME280;2982;42.684;23.356;2023-02-26T15:59:48;93734.78;;;16.65;45.50
5913;BME280;2982;42.684;23.356;2023-02-26T16:02:17;93724.28;;;16.59;46.95
5913;BME280;2982;42.684;23.356;2023-02-26T16:04:43;93727.56;;;16.51;47.17
5913;BME280;2982;42.684;23.356;2023-02-26T16:07:09;93729.28;;;16.60;47.77
5913;BME280;2982;42.684;23.356;2023-02-26T16:09:39;93753.97;;;16.52;48.64